createdAt,value
2018-06-01T00:01:54.960Z,15.63
2018-06-01T00:04:21.590Z,15.73
2018-06-01T00:06:48.964Z,16.43
2018-06-01T00:09:16.554Z,16.13
2018-06-01T00:11:43.192Z,16.47
2018-06-01T00:14:10.205Z,16.90
2018-06-01T00:16:36.839Z,16.27
2018-06-01T00:19:03.543Z,16.40
2018-06-01T00:21:30.183Z,16.77
2018-06-01T00:23:56.852Z,16.43
2018-06-01T00:26:23.636Z,16.93
2018-06-01T00:28:50.316Z,16.27
2018-06-01T00:31:16.961Z,16.20
2018-06-01T00:33:43.580Z,17.40
2018-06-01T00:36:10.285Z,17.17
2018-06-01T00:38:36.960Z,17.67
2018-06-01T00:41:03.609Z,17.73
2018-06-01T00:43:30.288Z,17.40
2018-06-01T00:45:56.948Z,18.33
2018-06-01T00:48:23.589Z,16.97
2018-06-01T00:50:50.344Z,16.50
2018-06-01T00:53:17.022Z,16.63
2018-06-01T00:55:44.438Z,17.37
2018-06-01T00:58:11.113Z,17.53
2018-06-01T01:00:38.530Z,18.10
2018-06-01T01:03:05.988Z,17.90
2018-06-01T01:05:32.672Z,18.43
2018-06-01T01:08:00.122Z,18.40
2018-06-01T01:10:26.806Z,18.37
2018-06-01T01:12:53.443Z,19.87
2018-06-01T01:15:20.184Z,19.60
2018-06-01T01:17:46.827Z,18.70
2018-06-01T01:20:13.440Z,19.67
2018-06-01T01:22:40.869Z,20.27
2018-06-01T01:25:08.284Z,19.43
2018-06-01T01:27:35.107Z,19.10
2018-06-01T01:30:01.777Z,20.23
2018-06-01T01:32:28.412Z,19.80
2018-06-01T01:34:55.081Z,20.10
2018-06-01T01:37:31.843Z,19.67
2018-06-01T01:39:59.291Z,19.50
2018-06-01T01:42:25.952Z,20.23
2018-06-01T01:44:53.517Z,19.67
2018-06-01T01:47:21.024Z,21.73
2018-06-01T01:49:52.512Z,22.73
2018-06-01T01:52:19.353Z,21.33
2018-06-01T01:54:46.136Z,22.77
2018-06-01T01:57:13.704Z,22.03
2018-06-01T01:59:40.492Z,18.77
2018-06-01T02:02:07.295Z,20.40
2018-06-01T02:04:34.920Z,19.00
2018-06-01T02:07:02.551Z,20.27
2018-06-01T02:09:29.420Z,19.63
2018-06-01T02:11:56.191Z,20.90
2018-06-01T02:14:22.960Z,19.70
2018-06-01T02:16:50.577Z,19.27
2018-06-01T02:19:18.106Z,19.10
2018-06-01T02:21:44.934Z,19.03
2018-06-01T02:24:11.692Z,18.40
2018-06-01T02:26:38.460Z,19.17
2018-06-01T02:29:05.345Z,21.27
2018-06-01T02:31:32.130Z,19.90
2018-06-01T02:33:58.964Z,21.03
2018-06-01T02:36:25.752Z,22.03
2018-06-01T02:38:52.564Z,22.63
2018-06-01T02:41:19.395Z,21.97
2018-06-01T02:43:46.233Z,21.23
2018-06-01T02:46:13.040Z,22.27
2018-06-01T02:48:40.551Z,21.50
2018-06-01T02:51:07.307Z,21.67
2018-06-01T02:53:34.284Z,21.17
2018-06-01T02:56:01.063Z,21.20
2018-06-01T02:58:27.875Z,19.83
2018-06-01T03:00:55.402Z,20.43
2018-06-01T03:03:22.924Z,18.63
2018-06-01T03:05:49.801Z,19.60
2018-06-01T03:08:17.482Z,18.93
2018-06-01T03:10:45.008Z,20.17
2018-06-01T03:13:11.795Z,19.90
2018-06-01T03:15:38.634Z,20.03
2018-06-01T03:18:05.554Z,18.77
2018-06-01T03:20:32.322Z,19.93
2018-06-01T03:22:59.092Z,18.40
2018-06-01T03:25:25.908Z,18.57
2018-06-01T03:27:52.676Z,17.60
2018-06-01T03:30:20.243Z,18.77
2018-06-01T03:32:47.051Z,20.23
2018-06-01T03:35:14.550Z,19.97
2018-06-01T03:37:41.324Z,20.10
2018-06-01T03:40:08.134Z,20.90
2018-06-01T03:42:35.699Z,19.53
2018-06-01T03:45:02.574Z,19.30
2018-06-01T03:47:29.352Z,19.17
2018-06-01T03:49:56.424Z,18.73
2018-06-01T03:52:23.195Z,17.77
2018-06-01T03:54:50.115Z,19.30
2018-06-01T03:57:16.929Z,19.57
2018-06-01T03:59:43.712Z,19.70
2018-06-01T04:02:10.533Z,19.07
2018-06-01T04:04:37.548Z,19.10
2018-06-01T04:07:04.431Z,18.20
2018-06-01T04:09:31.952Z,17.77
2018-06-01T04:11:59.604Z,16.47
2018-06-01T04:14:26.423Z,16.87
2018-06-01T04:16:53.291Z,15.53
2018-06-01T04:19:20.159Z,15.17
2018-06-01T04:21:46.968Z,15.20
2018-06-01T04:24:13.945Z,15.27
2018-06-01T04:26:41.476Z,13.90
2018-06-01T04:29:08.267Z,14.23
2018-06-01T04:31:35.138Z,14.07
2018-06-01T04:34:01.922Z,14.63
2018-06-01T04:36:29.443Z,13.70
2018-06-01T04:38:56.247Z,13.10
2018-06-01T04:41:23.344Z,13.40
2018-06-01T04:43:50.179Z,12.13
2018-06-01T04:46:16.956Z,12.33
2018-06-01T04:48:43.763Z,12.47
2018-06-01T04:51:10.544Z,10.97
2018-06-01T04:53:37.366Z,11.83
2018-06-01T04:56:04.286Z,10.30
2018-06-01T04:58:31.104Z,10.50
2018-06-01T05:00:57.904Z,10.93
2018-06-01T05:03:24.663Z,10.63
2018-06-01T05:05:51.846Z,11.10
2018-06-01T05:08:18.712Z,10.20
2018-06-01T05:10:45.508Z,9.93
2018-06-01T05:13:13.028Z,8.97
2018-06-01T05:15:39.791Z,9.70
2018-06-01T05:18:06.612Z,10.00
2018-06-01T05:20:34.222Z,8.90
2018-06-01T05:23:01.870Z,9.30
2018-06-01T05:25:29.403Z,9.67
2018-06-01T05:27:56.170Z,9.90
2018-06-01T05:30:22.999Z,8.87
2018-06-01T05:32:49.868Z,9.87
2018-06-01T05:37:51.910Z,9.10
2018-06-01T05:40:18.676Z,9.97
2018-06-01T05:42:45.508Z,9.67
2018-06-01T05:45:18.448Z,8.53
2018-06-01T05:47:45.254Z,9.10
2018-06-01T05:50:12.089Z,8.60
2018-06-01T05:52:38.853Z,8.87
2018-06-01T05:55:06.383Z,8.73
2018-06-01T05:57:33.264Z,8.60
2018-06-01T06:00:00.908Z,8.77
2018-06-01T06:02:27.705Z,8.60
2018-06-01T06:04:54.511Z,7.80
2018-06-01T06:07:22.024Z,8.10
2018-06-01T06:09:49.012Z,8.70
2018-06-01T06:12:16.516Z,8.07
2018-06-01T06:14:43.275Z,7.93
2018-06-01T06:17:10.087Z,8.03
2018-06-01T06:19:36.856Z,8.20
2018-06-01T06:22:04.460Z,8.47
2018-06-01T06:24:32.260Z,7.83
2018-06-01T06:26:59.040Z,8.30
2018-06-01T06:29:25.816Z,8.20
2018-06-01T06:31:53.404Z,7.33
2018-06-01T06:34:20.288Z,8.20
2018-06-01T06:36:47.068Z,7.13
2018-06-01T06:39:14.624Z,7.30
2018-06-01T06:41:42.131Z,7.40
2018-06-01T06:44:08.948Z,7.77
2018-06-01T06:46:35.842Z,7.20
2018-06-01T06:49:02.661Z,7.30
2018-06-01T06:51:29.469Z,6.93
2018-06-01T06:53:57.038Z,7.97
2018-06-01T06:56:24.054Z,7.80
2018-06-01T06:58:50.872Z,7.80
2018-06-01T07:01:17.640Z,8.17
2018-06-01T07:03:44.456Z,7.80
2018-06-01T07:06:11.224Z,8.87
2018-06-01T07:08:38.064Z,8.13
2018-06-01T07:11:04.891Z,7.57
2018-06-01T07:13:31.900Z,7.40
2018-06-01T07:15:58.675Z,7.77
2018-06-01T07:18:25.458Z,7.90
2018-06-01T07:20:53.148Z,8.00
2018-06-01T07:23:19.976Z,8.70
2018-06-01T07:25:47.484Z,9.50
2018-06-01T07:28:14.302Z,8.87
2018-06-01T07:30:41.124Z,8.07
2018-06-01T07:33:07.912Z,7.90
2018-06-01T07:35:34.848Z,9.47
2018-06-01T07:38:01.619Z,9.37
2018-06-01T07:40:28.488Z,8.23
2018-06-01T07:42:55.995Z,7.97
2018-06-01T07:45:29.009Z,8.40
2018-06-01T07:47:55.847Z,9.30
2018-06-01T07:50:22.992Z,9.07
2018-06-01T07:52:49.770Z,8.90
2018-06-01T07:55:16.540Z,9.50
2018-06-01T07:57:43.419Z,10.07
2018-06-01T08:00:10.979Z,9.30
2018-06-01T08:02:37.987Z,9.73
2018-06-01T08:05:04.825Z,10.37
2018-06-01T08:07:32.377Z,9.33
2018-06-01T08:10:00.092Z,9.07
2018-06-01T08:12:27.652Z,9.77
2018-06-01T08:14:54.424Z,9.87
2018-06-01T08:17:25.296Z,8.87
2018-06-01T08:19:52.083Z,8.63
2018-06-01T08:22:19.304Z,9.47
2018-06-01T08:24:46.124Z,9.50
2018-06-01T08:27:13.623Z,9.93
2018-06-01T08:29:40.747Z,9.47
2018-06-01T08:32:07.751Z,9.57
2018-06-01T08:34:34.827Z,9.93
2018-06-01T08:37:01.649Z,10.53
2018-06-01T08:39:28.447Z,10.23
2018-06-01T08:41:55.377Z,11.03
2018-06-01T08:44:22.188Z,10.20
2018-06-01T08:46:48.957Z,9.87
2018-06-01T08:49:15.837Z,11.17
2018-06-01T08:51:42.615Z,10.50
2018-06-01T08:54:09.563Z,10.63
2018-06-01T08:56:36.333Z,11.47
2018-06-01T08:59:03.927Z,11.17
2018-06-01T09:01:30.885Z,11.13
2018-06-01T09:03:57.653Z,10.93
2018-06-01T09:06:24.446Z,12.43
2018-06-01T09:08:51.283Z,10.40
2018-06-01T09:11:18.093Z,10.30
2018-06-01T09:13:44.911Z,13.03
2018-06-01T09:16:11.727Z,10.47
2018-06-01T09:18:38.560Z,12.60
2018-06-01T09:21:05.435Z,11.07
2018-06-01T09:23:32.347Z,12.03
2018-06-01T09:25:59.180Z,10.10
2018-06-01T09:28:26.733Z,10.47
2018-06-01T09:30:53.518Z,11.70
2018-06-01T09:33:20.336Z,11.83
2018-06-01T09:35:47.149Z,11.83
2018-06-01T09:38:13.964Z,11.03
2018-06-01T09:40:40.783Z,10.93
2018-06-01T09:43:07.864Z,11.03
2018-06-01T09:45:35.619Z,11.40
2018-06-01T09:48:02.768Z,12.80
2018-06-01T09:50:30.324Z,12.13
2018-06-01T09:52:57.096Z,12.03
2018-06-01T09:55:23.941Z,13.40
2018-06-01T09:57:50.698Z,11.47
2018-06-01T10:00:18.303Z,12.80
2018-06-01T10:02:45.924Z,12.27
2018-06-01T10:05:12.730Z,12.87
2018-06-01T10:07:39.503Z,12.17
2018-06-01T10:10:13.056Z,13.20
2018-06-01T10:12:39.874Z,12.70
2018-06-01T10:15:06.716Z,12.77
2018-06-01T10:17:33.537Z,13.97
2018-06-01T10:20:01.110Z,12.30
2018-06-01T10:22:28.851Z,12.93
2018-06-01T10:24:55.619Z,12.43
2018-06-01T10:27:22.480Z,13.00
2018-06-01T10:29:49.290Z,13.93
2018-06-01T10:32:16.795Z,14.17
2018-06-01T10:34:43.748Z,12.80
2018-06-01T10:37:10.516Z,13.50
2018-06-01T10:39:37.353Z,12.70
2018-06-01T10:42:04.985Z,12.77
2018-06-01T10:44:31.753Z,13.00
2018-06-01T10:46:58.575Z,13.43
2018-06-01T10:49:25.338Z,14.87
2018-06-01T10:51:52.896Z,13.30
2018-06-01T10:54:19.721Z,12.83
2018-06-01T10:56:46.499Z,13.00
2018-06-01T10:59:13.372Z,13.03
2018-06-01T11:01:40.923Z,12.43
2018-06-01T11:04:07.814Z,11.97
2018-06-01T11:06:34.652Z,13.00
2018-06-01T11:09:01.416Z,11.70
2018-06-01T11:11:28.337Z,10.87
2018-06-01T11:13:55.121Z,11.53
2018-06-01T11:16:21.948Z,10.10
2018-06-01T11:18:48.758Z,10.67
2018-06-01T11:21:15.587Z,10.37
2018-06-01T11:23:42.404Z,11.43
2018-06-01T11:26:09.164Z,11.07
2018-06-01T11:28:36.065Z,10.70
2018-06-01T11:31:02.823Z,9.47
2018-06-01T11:33:29.583Z,9.17
2018-06-01T11:35:56.385Z,9.30
2018-06-01T11:38:23.195Z,9.43
2018-06-01T11:40:50.044Z,9.83
2018-06-01T11:43:16.818Z,10.40
2018-06-01T11:45:49.489Z,11.50
2018-06-01T11:48:16.268Z,10.37
2018-06-01T11:50:43.191Z,10.97
2018-06-01T11:53:10.750Z,10.93
2018-06-01T11:55:37.517Z,11.70
2018-06-01T11:58:04.337Z,11.30
2018-06-01T12:00:31.208Z,14.10
2018-06-01T12:02:58.031Z,14.27
2018-06-01T12:05:25.580Z,14.30
2018-06-01T12:07:52.400Z,14.20
2018-06-01T12:10:19.177Z,14.30
2018-06-01T12:12:45.959Z,13.33
2018-06-01T12:15:13.583Z,16.83
2018-06-01T12:17:40.485Z,17.60
2018-06-01T12:20:07.250Z,20.17
2018-06-01T12:22:34.758Z,21.63
2018-06-01T12:25:02.462Z,18.87
2018-06-01T12:27:29.231Z,20.23
2018-06-01T12:29:56.301Z,19.13
2018-06-01T12:32:23.162Z,18.03
2018-06-01T12:34:49.936Z,16.07
2018-06-01T12:37:16.746Z,16.13
2018-06-01T12:39:44.266Z,15.23
2018-06-01T12:42:11.898Z,13.80
2018-06-01T12:44:38.722Z,16.33
2018-06-01T12:47:06.220Z,16.90
2018-06-01T12:49:33.028Z,14.23
2018-06-01T12:52:00.536Z,13.07
2018-06-01T12:54:28.160Z,15.23
2018-06-01T12:56:55.680Z,18.63
2018-06-01T12:59:22.491Z,23.23
2018-06-01T13:01:49.413Z,29.43
2018-06-01T13:04:16.246Z,30.03
2018-06-01T13:06:43.055Z,28.57
2018-06-01T13:09:09.869Z,25.10
2018-06-01T13:11:36.698Z,19.20
2018-06-01T13:14:03.549Z,17.40
2018-06-01T13:16:31.090Z,17.00
2018-06-01T13:18:57.956Z,15.23
2018-06-01T13:21:24.774Z,11.37
2018-06-01T13:23:51.752Z,12.27
2018-06-01T13:26:19.273Z,12.33
2018-06-01T13:28:46.123Z,13.90
2018-06-01T13:31:13.007Z,13.47
2018-06-01T13:33:39.844Z,12.57
2018-06-01T13:36:06.632Z,13.53
2018-06-01T13:38:34.204Z,12.73
2018-06-01T13:41:01.741Z,13.20
2018-06-01T13:43:28.577Z,16.03
2018-06-01T13:45:55.503Z,17.03
2018-06-01T13:48:22.324Z,22.37
2018-06-01T13:50:49.340Z,26.17
2018-06-01T13:53:16.171Z,29.10
2018-06-01T13:55:43.070Z,28.60
2018-06-01T13:58:10.578Z,30.77
2018-06-01T14:00:37.392Z,32.37
2018-06-01T14:03:04.313Z,31.07
2018-06-01T14:05:31.834Z,29.97
2018-06-01T14:07:58.744Z,30.80
2018-06-01T14:10:25.517Z,33.23
2018-06-01T14:12:52.297Z,34.77
2018-06-01T14:15:19.147Z,36.07
2018-06-01T14:17:45.950Z,37.87
2018-06-01T14:20:13.028Z,33.90
2018-06-01T14:22:39.811Z,38.40
2018-06-01T14:25:06.839Z,36.57
2018-06-01T14:27:33.658Z,37.77
2018-06-01T14:30:00.444Z,34.60
2018-06-01T14:32:27.316Z,35.50
2018-06-01T14:34:54.087Z,35.83
2018-06-01T14:37:20.913Z,36.07
2018-06-01T14:39:48.468Z,35.07
2018-06-01T14:42:16.170Z,34.73
2018-06-01T14:44:43.000Z,35.53
2018-06-01T14:47:09.794Z,33.83
2018-06-01T14:49:36.633Z,38.23
2018-06-01T14:52:03.461Z,34.57
2018-06-01T14:54:30.275Z,34.17
2018-06-01T14:56:57.116Z,35.27
2018-06-01T14:59:23.996Z,33.30
2018-06-01T15:01:50.795Z,34.40
2018-06-01T15:04:17.666Z,30.77
2018-06-01T15:06:44.461Z,27.33
2018-06-01T15:09:11.291Z,26.87
2018-06-01T15:11:38.132Z,25.47
2018-06-01T15:14:04.956Z,25.73
2018-06-01T15:16:31.936Z,24.73
2018-06-01T15:18:58.708Z,23.07
2018-06-01T15:21:25.552Z,25.97
2018-06-01T15:23:53.188Z,24.57
2018-06-01T15:26:19.976Z,23.40
2018-06-01T15:28:46.760Z,24.30
2018-06-01T15:31:13.588Z,23.83
2018-06-01T15:33:41.156Z,22.63
2018-06-01T15:36:07.951Z,22.53
2018-06-01T15:38:34.794Z,23.20
2018-06-01T15:41:01.631Z,22.60
2018-06-01T15:43:28.389Z,23.33
2018-06-01T15:45:55.284Z,22.03
2018-06-01T15:48:22.376Z,20.53
2018-06-01T15:50:49.204Z,20.30
2018-06-01T15:53:16.724Z,21.50
2018-06-01T15:55:43.534Z,19.90
2018-06-01T15:58:10.520Z,19.73
2018-06-01T16:00:37.304Z,18.47
2018-06-01T16:03:04.328Z,17.73
2018-06-01T16:05:31.167Z,17.30
2018-06-01T16:07:57.960Z,18.23
2018-06-01T16:10:24.846Z,15.17
2018-06-01T16:12:51.646Z,17.33
2018-06-01T16:15:18.440Z,17.00
2018-06-01T16:17:45.259Z,16.13
2018-06-01T16:20:12.036Z,16.33
2018-06-01T16:22:38.877Z,16.20
2018-06-01T16:25:05.964Z,14.23
2018-06-01T16:27:32.739Z,13.67
2018-06-01T16:29:59.512Z,14.80
2018-06-01T16:32:27.515Z,14.43
2018-06-01T16:34:54.356Z,14.30
2018-06-01T16:37:21.314Z,13.77
2018-06-01T16:39:48.113Z,11.90
2018-06-01T16:42:14.907Z,12.93
2018-06-01T16:44:41.730Z,12.83
2018-06-01T16:47:08.573Z,12.80
2018-06-01T16:49:35.438Z,12.83
2018-06-01T16:52:02.235Z,13.60
2018-06-01T16:54:29.015Z,13.13
2018-06-01T16:56:55.840Z,13.50
2018-06-01T16:59:22.677Z,14.07
2018-06-01T17:01:50.410Z,13.30
2018-06-01T17:04:17.368Z,14.23
2018-06-01T17:06:44.252Z,14.27
2018-06-01T17:09:11.145Z,13.67
2018-06-01T17:11:38.005Z,13.93
2018-06-01T17:14:04.788Z,14.10
2018-06-01T17:16:31.729Z,13.53
2018-06-01T17:18:58.521Z,13.67
2018-06-01T17:21:25.324Z,12.43
2018-06-01T17:23:52.228Z,12.70
2018-06-01T17:26:19.018Z,12.43
2018-06-01T17:28:45.803Z,12.07
2018-06-01T17:31:12.640Z,11.93
2018-06-01T17:33:39.426Z,11.90
2018-06-01T17:36:06.272Z,10.57
2018-06-01T17:38:33.276Z,10.43
2018-06-01T17:41:00.068Z,9.87
2018-06-01T17:43:26.852Z,10.37
2018-06-01T17:45:53.900Z,11.17
2018-06-01T17:48:20.836Z,11.27
2018-06-01T17:50:47.616Z,12.43
2018-06-01T17:53:14.448Z,14.03
2018-06-01T17:55:41.348Z,13.40
2018-06-01T17:58:08.139Z,14.90
2018-06-01T18:00:35.102Z,15.47
2018-06-01T18:03:02.636Z,14.80
2018-06-01T18:05:29.420Z,14.70
2018-06-01T18:07:57.248Z,15.10
2018-06-01T18:10:24.027Z,15.57
2018-06-01T18:12:50.914Z,16.13
2018-06-01T18:15:17.713Z,15.83
2018-06-01T18:17:45.291Z,14.47
2018-06-01T18:20:12.476Z,15.20
2018-06-01T18:22:39.303Z,15.20
2018-06-01T18:25:06.164Z,14.93
2018-06-01T18:27:32.974Z,14.77
2018-06-01T18:29:59.768Z,15.30
2018-06-01T18:32:26.585Z,15.23
2018-06-01T18:34:53.752Z,15.23
2018-06-01T18:37:21.874Z,15.70
2018-06-01T18:39:49.499Z,15.93
2018-06-01T18:42:16.336Z,14.90
2018-06-01T18:44:43.131Z,16.27
2018-06-01T18:47:09.899Z,16.27
2018-06-01T18:49:37.595Z,17.00
2018-06-01T18:52:04.428Z,17.37
2018-06-01T18:54:31.394Z,16.60
2018-06-01T18:56:58.200Z,16.33
2018-06-01T18:59:25.332Z,16.77
2018-06-01T19:01:52.531Z,17.13
2018-06-01T19:04:19.324Z,15.10
2018-06-01T19:06:46.128Z,15.53
2018-06-01T19:09:13.038Z,17.23
2018-06-01T19:11:39.755Z,16.87
2018-06-01T19:14:07.108Z,16.80
2018-06-01T19:16:33.892Z,17.47
2018-06-01T19:19:00.688Z,17.30
2018-06-01T19:21:28.384Z,17.60
2018-06-01T19:23:55.164Z,18.10
2018-06-01T19:26:22.037Z,17.10
2018-06-01T19:28:48.805Z,18.53
2018-06-01T19:31:15.833Z,18.60
2018-06-01T19:33:42.604Z,19.47
2018-06-01T19:36:09.680Z,19.77
2018-06-01T19:38:36.744Z,19.73
2018-06-01T19:41:03.548Z,20.10
2018-06-01T19:43:30.619Z,19.80
2018-06-01T19:45:57.456Z,19.63
2018-06-01T19:48:24.224Z,20.50
2018-06-01T19:50:51.100Z,19.57
2018-06-01T19:53:17.944Z,19.77
2018-06-01T19:55:44.725Z,20.73
2018-06-01T19:58:11.544Z,19.77
2018-06-01T20:00:38.369Z,21.30
2018-06-01T20:03:05.187Z,21.20
2018-06-01T20:05:32.758Z,21.13
2018-06-01T20:08:00.282Z,21.83
2018-06-01T20:10:27.115Z,20.80
2018-06-01T20:12:53.890Z,20.87
2018-06-01T20:15:20.785Z,21.10
2018-06-01T20:17:47.612Z,21.67
2018-06-01T20:20:14.718Z,21.07
2018-06-01T20:22:41.581Z,21.17
2018-06-01T20:25:08.342Z,21.27
2018-06-01T20:27:35.167Z,20.80
2018-06-01T20:30:01.983Z,21.07
2018-06-01T20:32:28.747Z,21.50
2018-06-01T20:34:55.516Z,22.17
2018-06-01T20:37:22.390Z,21.80
2018-06-01T20:39:49.952Z,22.67
2018-06-01T20:42:16.775Z,21.83
2018-06-01T20:44:43.542Z,21.77
2018-06-01T20:47:10.368Z,22.00
2018-06-01T20:49:37.160Z,22.43
2018-06-01T20:52:04.039Z,21.87
2018-06-01T20:54:30.858Z,20.70
2018-06-01T20:56:58.387Z,21.67
2018-06-01T20:59:25.203Z,21.60
2018-06-01T21:01:51.995Z,21.93
2018-06-01T21:04:18.819Z,21.30
2018-06-01T21:06:45.628Z,23.13
2018-06-01T21:09:12.406Z,22.57
2018-06-01T21:11:39.525Z,22.73
2018-06-01T21:14:06.298Z,23.30
2018-06-01T21:16:33.137Z,24.10
2018-06-01T21:18:59.953Z,25.00
2018-06-01T21:21:26.799Z,25.90
2018-06-01T21:23:54.264Z,24.47
2018-06-01T21:26:21.087Z,24.73
2018-06-01T21:28:47.952Z,24.37
2018-06-01T21:31:14.740Z,24.37
2018-06-01T21:33:41.559Z,24.37
2018-06-01T21:36:08.428Z,26.37
2018-06-01T21:38:35.247Z,26.03
2018-06-01T21:41:02.079Z,24.60
2018-06-01T21:43:28.907Z,26.73
2018-06-01T21:45:55.684Z,25.53
2018-06-01T21:48:22.467Z,24.23
2018-06-01T21:50:50.121Z,26.93
2018-06-01T21:53:16.970Z,25.93
2018-06-01T21:55:44.520Z,25.97
2018-06-01T21:58:12.053Z,27.00
2018-06-01T22:00:38.896Z,26.07
2018-06-01T22:03:05.929Z,26.67
2018-06-01T22:05:33.492Z,28.07
2018-06-01T22:08:00.280Z,27.73
2018-06-01T22:10:27.899Z,28.13
2018-06-01T22:12:54.675Z,27.33
2018-06-01T22:15:21.496Z,27.83
2018-06-01T22:17:48.494Z,28.70
2018-06-01T22:20:15.285Z,29.63
2018-06-01T22:22:42.077Z,29.33
2018-06-01T22:25:08.955Z,30.70
2018-06-01T22:27:35.712Z,30.97
2018-06-01T22:30:03.393Z,29.63
2018-06-01T22:32:30.226Z,29.70
2018-06-01T22:34:57.057Z,31.30
2018-06-01T22:37:24.159Z,32.30
2018-06-01T22:39:51.716Z,32.63
2018-06-01T22:42:18.557Z,34.73
2018-06-01T22:44:46.112Z,34.37
2018-06-01T22:47:13.632Z,35.80
2018-06-01T22:49:40.407Z,33.30
2018-06-01T22:52:07.320Z,36.27
2018-06-01T22:54:34.920Z,37.97
2018-06-01T22:57:02.476Z,36.87
2018-06-01T22:59:29.252Z,35.97
2018-06-01T23:01:56.040Z,38.17
2018-06-01T23:04:22.859Z,39.20
2018-06-01T23:06:49.756Z,40.73
2018-06-01T23:09:17.318Z,38.73
2018-06-01T23:11:44.814Z,41.50
2018-06-01T23:14:11.651Z,40.77
2018-06-01T23:16:38.489Z,42.80
2018-06-01T23:19:05.315Z,41.93
2018-06-01T23:21:32.828Z,42.23
2018-06-01T23:23:59.651Z,43.07
2018-06-01T23:26:26.463Z,43.97
2018-06-01T23:28:53.272Z,44.80
2018-06-01T23:31:20.098Z,44.13
2018-06-01T23:33:46.918Z,43.97
2018-06-01T23:36:13.932Z,47.47
2018-06-01T23:38:41.505Z,49.10
2018-06-01T23:41:09.083Z,51.07
2018-06-01T23:43:35.923Z,51.60
2018-06-01T23:46:02.692Z,51.87
2018-06-01T23:48:29.508Z,51.60
2018-06-01T23:50:56.302Z,54.77
2018-06-01T23:53:23.124Z,53.90
2018-06-01T23:55:50.715Z,53.43
2018-06-01T23:58:17.558Z,53.20
